createdAt,value
2024-04-18T00:01:38.208Z,-0.40
2024-04-18T00:04:05.471Z,-0.40
2024-04-18T00:06:33.744Z,-0.40
2024-04-18T00:09:00.956Z,-0.40
2024-04-18T00:11:28.290Z,-0.50
2024-04-18T00:13:55.388Z,-0.50
2024-04-18T00:16:49.016Z,-0.50
2024-04-18T00:19:16.792Z,-0.40
2024-04-18T00:21:57.927Z,-0.40
2024-04-18T00:24:30.848Z,-0.40
2024-04-18T00:26:58.229Z,-0.40
2024-04-18T00:29:37.642Z,-0.40
2024-04-18T00:32:11.536Z,-0.40
2024-04-18T00:34:38.813Z,-0.50
2024-04-18T00:37:06.025Z,-0.50
2024-04-18T00:39:51.884Z,-0.50
2024-04-18T00:42:39.426Z,-0.60
2024-04-18T00:45:07.572Z,-0.60
2024-04-18T00:47:49.604Z,-0.70
2024-04-18T00:50:18.065Z,-0.60
2024-04-18T00:52:45.776Z,-0.70
2024-04-18T00:55:30.270Z,-0.70
2024-04-18T00:58:12.329Z,-0.80
2024-04-18T01:00:43.969Z,-0.90
2024-04-18T01:03:30.352Z,-0.90
2024-04-18T01:06:10.698Z,-0.90
2024-04-18T01:08:57.511Z,-1.00
2024-04-18T01:11:32.029Z,-1.00
2024-04-18T01:14:12.595Z,-1.10
2024-04-18T01:16:58.349Z,-1.10
2024-04-18T01:19:25.658Z,-1.10
2024-04-18T01:21:53.780Z,-1.10
2024-04-18T01:24:21.107Z,-1.10
2024-04-18T01:26:48.350Z,-1.00
2024-04-18T01:29:15.413Z,-1.00
2024-04-18T01:32:08.547Z,-1.10
2024-04-18T01:34:35.747Z,-1.00
2024-04-18T01:37:17.822Z,-1.10
2024-04-18T01:39:46.041Z,-1.10
2024-04-18T01:42:13.421Z,-1.10
2024-04-18T01:44:48.160Z,-1.10
2024-04-18T01:47:33.820Z,-1.10
2024-04-18T01:50:07.601Z,-1.20
2024-04-18T01:52:34.706Z,-1.20
2024-04-18T01:55:08.983Z,-1.30
2024-04-18T01:57:37.191Z,-1.30
2024-04-18T02:00:23.045Z,-1.40
2024-04-18T02:02:50.314Z,-1.40
2024-04-18T02:05:35.821Z,-1.40
2024-04-18T02:08:15.198Z,-1.40
2024-04-18T02:10:45.711Z,-1.40
2024-04-18T02:13:36.141Z,-1.40
2024-04-18T02:16:03.545Z,-1.40
2024-04-18T02:18:49.735Z,-1.30
2024-04-18T02:21:16.898Z,-1.40
2024-04-18T02:23:53.333Z,-1.40
2024-04-18T02:26:20.650Z,-1.40
2024-04-18T02:28:47.815Z,-1.40
2024-04-18T02:31:17.751Z,-1.40
2024-04-18T02:33:51.233Z,-1.50
2024-04-18T02:36:18.590Z,-1.50
2024-04-18T02:38:45.767Z,-1.50
2024-04-18T02:41:13.095Z,-1.50
2024-04-18T02:43:56.035Z,-1.50
2024-04-18T02:46:24.098Z,-1.60
2024-04-18T02:49:11.787Z,-1.70
2024-04-18T02:51:57.898Z,-1.70
2024-04-18T02:54:43.726Z,-1.60
2024-04-18T02:57:11.162Z,-1.50
2024-04-18T02:59:38.311Z,-1.40
2024-04-18T03:02:25.090Z,-1.30
2024-04-18T03:04:52.261Z,-1.20
2024-04-18T03:07:23.859Z,-1.20
2024-04-18T03:09:51.093Z,-1.20
2024-04-18T03:12:27.893Z,-1.20
2024-04-18T03:15:20.757Z,-1.20
2024-04-18T03:18:06.779Z,-1.30
2024-04-18T03:20:35.263Z,-1.30
2024-04-18T03:23:09.963Z,-1.40
2024-04-18T03:25:55.803Z,-1.50
2024-04-18T03:28:22.913Z,-1.50
2024-04-18T03:30:50.129Z,-1.50
2024-04-18T03:33:17.419Z,-1.50
2024-04-18T03:35:44.747Z,-1.50
2024-04-18T03:38:15.250Z,-1.50
2024-04-18T03:40:42.502Z,-1.60
2024-04-18T03:43:09.732Z,-1.60
2024-04-18T03:45:36.895Z,-1.70
2024-04-18T03:48:22.737Z,-1.70
2024-04-18T03:50:49.936Z,-1.60
2024-04-18T03:53:20.725Z,-1.60
2024-04-18T03:55:47.846Z,-1.60
2024-04-18T03:58:14.885Z,-1.50
2024-04-18T04:00:51.879Z,-1.60
2024-04-18T04:03:19.305Z,-1.60
2024-04-18T04:05:46.527Z,-1.60
2024-04-18T04:08:13.561Z,-1.60
2024-04-18T04:10:44.003Z,-1.60
2024-04-18T04:13:11.882Z,-1.60
2024-04-18T04:15:42.593Z,-1.60
2024-04-18T04:18:09.854Z,-1.50
2024-04-18T04:20:43.558Z,-1.50
2024-04-18T04:23:10.743Z,-1.50
2024-04-18T04:25:56.775Z,-1.60
2024-04-18T04:28:23.850Z,-1.50
2024-04-18T04:30:51.235Z,-1.60
2024-04-18T04:33:18.403Z,-1.60
2024-04-18T04:35:45.453Z,-1.60
2024-04-18T04:38:12.529Z,-1.70
2024-04-18T04:40:39.676Z,-1.70
2024-04-18T04:43:06.683Z,-1.60
2024-04-18T04:45:33.815Z,-1.60
2024-04-18T04:48:07.578Z,-1.50
2024-04-18T04:51:00.761Z,-1.50
2024-04-18T04:53:34.400Z,-1.50
2024-04-18T04:56:01.593Z,-1.50
2024-04-18T04:58:28.781Z,-1.40
2024-04-18T05:00:57.229Z,-1.30
2024-04-18T05:03:37.514Z,-1.20
2024-04-18T05:06:24.623Z,-1.10
2024-04-18T05:09:27.269Z,-1.00
2024-04-18T05:11:54.486Z,-0.90
2024-04-18T05:14:34.005Z,-0.70
2024-04-18T05:17:21.706Z,-0.50
2024-04-18T05:20:09.482Z,-0.10
2024-04-18T05:22:36.589Z,0.20
2024-04-18T05:25:03.812Z,0.40
2024-04-18T05:27:30.890Z,0.70
2024-04-18T05:30:16.768Z,0.90
2024-04-18T05:32:44.016Z,1.20
2024-04-18T05:35:11.150Z,1.50
2024-04-18T05:37:38.161Z,1.80
2024-04-18T05:40:05.636Z,2.00
2024-04-18T05:42:32.747Z,2.30
2024-04-18T05:45:08.998Z,2.60
2024-04-18T05:47:56.061Z,2.70
2024-04-18T05:50:23.183Z,2.70
2024-04-18T05:52:50.492Z,2.80
2024-04-18T05:55:23.653Z,3.00
2024-04-18T05:57:50.890Z,3.10
2024-04-18T06:00:37.284Z,3.10
2024-04-18T06:03:05.401Z,3.20
2024-04-18T06:05:32.535Z,3.30
2024-04-18T06:08:14.973Z,3.30
2024-04-18T06:10:44.871Z,3.30
2024-04-18T06:13:24.011Z,3.40
2024-04-18T06:15:51.262Z,3.60
2024-04-18T06:18:18.492Z,3.70
2024-04-18T06:20:47.641Z,3.90
2024-04-18T06:23:15.470Z,4.10
2024-04-18T06:25:42.921Z,4.20
2024-04-18T06:28:12.389Z,4.20
2024-04-18T06:30:41.149Z,4.30
2024-04-18T06:33:11.674Z,4.40
2024-04-18T06:35:39.167Z,4.50
2024-04-18T06:38:07.587Z,4.60
2024-04-18T06:40:34.717Z,4.70
2024-04-18T06:43:01.941Z,4.60
2024-04-18T06:45:30.108Z,4.50
2024-04-18T06:47:57.559Z,4.60
2024-04-18T06:50:26.947Z,4.70
2024-04-18T06:52:54.657Z,4.60
2024-04-18T06:55:23.435Z,4.70
2024-04-18T06:57:50.882Z,4.80
2024-04-18T07:00:18.186Z,4.80
2024-04-18T07:02:45.982Z,5.00
2024-04-18T07:05:31.567Z,5.10
2024-04-18T07:08:17.359Z,5.20
2024-04-18T07:10:44.873Z,5.10
2024-04-18T07:13:27.778Z,5.10
2024-04-18T07:15:55.559Z,5.20
2024-04-18T07:18:41.453Z,5.40
2024-04-18T07:21:08.687Z,5.70
2024-04-18T07:23:38.988Z,5.80
2024-04-18T07:26:06.350Z,6.10
2024-04-18T07:28:33.760Z,6.00
2024-04-18T07:31:01.116Z,5.90
2024-04-18T07:33:29.013Z,5.80
2024-04-18T07:35:57.512Z,5.80
2024-04-18T07:38:28.662Z,5.90
2024-04-18T07:40:55.699Z,6.10
2024-04-18T07:43:22.865Z,6.30
2024-04-18T07:45:50.417Z,6.60
2024-04-18T07:48:17.638Z,6.60
2024-04-18T07:50:45.806Z,6.70
2024-04-18T07:53:12.770Z,6.80
2024-04-18T07:55:41.863Z,7.00
2024-04-18T07:58:09.316Z,7.10
2024-04-18T08:00:37.600Z,7.20
2024-04-18T08:03:06.571Z,7.30
2024-04-18T08:05:37.321Z,7.30
2024-04-18T08:08:08.758Z,7.40
2024-04-18T08:10:52.803Z,7.40
2024-04-18T08:13:29.884Z,7.30
2024-04-18T08:16:02.875Z,7.30
2024-04-18T08:18:30.338Z,7.50
2024-04-18T08:20:57.992Z,7.80
2024-04-18T08:23:25.503Z,8.00
2024-04-18T08:25:52.611Z,8.20
2024-04-18T08:28:19.730Z,8.20
2024-04-18T08:30:47.238Z,8.40
2024-04-18T08:33:14.604Z,8.40
2024-04-18T08:35:45.150Z,8.40
2024-04-18T08:38:13.554Z,8.20
2024-04-18T08:40:45.900Z,8.00
2024-04-18T08:43:13.830Z,8.00
2024-04-18T08:45:42.345Z,7.90
2024-04-18T08:48:12.126Z,8.00
2024-04-18T08:50:42.192Z,8.00
2024-04-18T08:53:11.109Z,7.80
2024-04-18T08:55:41.914Z,7.70
2024-04-18T08:58:13.155Z,7.60
2024-04-18T09:00:43.847Z,7.60
2024-04-18T09:03:12.311Z,7.60
2024-04-18T09:05:41.604Z,7.50
2024-04-18T09:08:14.199Z,7.60
2024-04-18T09:10:42.242Z,7.50
2024-04-18T09:13:10.808Z,7.60
2024-04-18T09:15:38.773Z,7.60
2024-04-18T09:18:07.879Z,7.80
2024-04-18T09:20:36.855Z,8.10
2024-04-18T09:23:05.347Z,8.30
2024-04-18T09:25:36.148Z,8.50
2024-04-18T09:28:05.844Z,8.70
2024-04-18T09:30:32.966Z,8.40
2024-04-18T09:33:05.529Z,8.20
2024-04-18T09:35:35.980Z,8.20
2024-04-18T09:38:09.307Z,8.30
2024-04-18T09:40:41.149Z,8.70
2024-04-18T09:43:42.582Z,9.20
2024-04-18T09:46:11.280Z,9.60
2024-04-18T09:48:38.959Z,9.60
2024-04-18T09:51:07.809Z,9.70
2024-04-18T09:53:38.250Z,9.50
2024-04-18T09:56:06.517Z,9.50
2024-04-18T09:58:34.740Z,9.40
2024-04-18T10:01:03.051Z,9.40
2024-04-18T10:03:30.354Z,9.10
2024-04-18T10:06:02.116Z,9.20
2024-04-18T10:08:33.255Z,9.20
2024-04-18T10:11:01.879Z,9.20
2024-04-18T10:13:30.057Z,9.30
2024-04-18T10:16:23.580Z,9.30
2024-04-18T10:18:53.612Z,9.20
2024-04-18T10:21:33.050Z,9.20
2024-04-18T10:24:06.378Z,9.30
2024-04-18T10:26:34.169Z,9.40
2024-04-18T10:29:01.460Z,9.30
2024-04-18T10:31:29.725Z,9.30
2024-04-18T10:33:58.475Z,9.20
2024-04-18T10:36:26.251Z,9.10
2024-04-18T10:38:53.625Z,9.10
2024-04-18T10:41:24.128Z,9.30
2024-04-18T10:43:51.734Z,9.40
2024-04-18T10:46:19.796Z,9.50
2024-04-18T10:48:52.099Z,9.50
2024-04-18T10:51:19.385Z,9.50
2024-04-18T10:53:46.768Z,9.40
2024-04-18T10:56:15.919Z,9.30
2024-04-18T10:58:43.458Z,9.30
2024-04-18T11:01:10.645Z,9.00
2024-04-18T11:03:38.170Z,8.80
2024-04-18T11:06:05.599Z,8.90
2024-04-18T11:08:35.200Z,8.90
2024-04-18T11:11:04.475Z,9.10
2024-04-18T11:13:31.842Z,9.40
2024-04-18T11:15:58.958Z,9.90
2024-04-18T11:18:26.384Z,10.30
2024-04-18T11:20:54.569Z,10.80
2024-04-18T11:23:35.414Z,11.00
2024-04-18T11:26:13.981Z,11.10
2024-04-18T11:28:41.608Z,11.20
2024-04-18T11:31:08.690Z,11.10
2024-04-18T11:33:36.456Z,11.00
2024-04-18T11:36:04.001Z,11.00
2024-04-18T11:38:33.649Z,10.90
2024-04-18T11:41:01.949Z,10.90
2024-04-18T11:43:29.163Z,11.00
2024-04-18T11:45:56.507Z,11.20
2024-04-18T11:48:23.882Z,11.30
2024-04-18T11:50:51.159Z,11.30
2024-04-18T11:53:18.299Z,11.40
2024-04-18T11:55:45.938Z,11.60
2024-04-18T11:58:28.366Z,11.60
2024-04-18T12:00:55.463Z,11.60
2024-04-18T12:03:39.501Z,11.50
2024-04-18T12:06:27.098Z,11.50
2024-04-18T12:08:55.251Z,11.30
2024-04-18T12:11:31.158Z,11.20
2024-04-18T12:14:13.974Z,11.30
2024-04-18T12:16:56.589Z,11.50
2024-04-18T12:19:44.232Z,11.50
2024-04-18T12:22:32.316Z,11.60
2024-04-18T12:25:18.485Z,11.70
2024-04-18T12:27:47.286Z,11.30
2024-04-18T12:30:33.361Z,10.90
2024-04-18T12:33:18.802Z,10.30
2024-04-18T12:35:46.325Z,10.20
2024-04-18T12:38:13.513Z,10.30
2024-04-18T12:40:44.341Z,10.40
2024-04-18T12:43:11.892Z,10.50
2024-04-18T12:46:10.120Z,10.50
2024-04-18T12:48:55.512Z,10.50
2024-04-18T12:51:23.387Z,10.60
2024-04-18T12:53:52.432Z,10.50
2024-04-18T12:56:40.592Z,10.40
2024-04-18T12:59:23.028Z,10.30
2024-04-18T13:01:50.105Z,9.90
2024-04-18T13:04:20.377Z,9.70
2024-04-18T13:06:47.658Z,9.40
2024-04-18T13:09:30.581Z,9.30
2024-04-18T13:12:03.231Z,9.40
2024-04-18T13:14:50.674Z,9.50
2024-04-18T13:17:18.514Z,9.70
2024-04-18T13:19:48.896Z,9.80
2024-04-18T13:22:16.291Z,10.10
2024-04-18T13:24:43.631Z,10.40
2024-04-18T13:27:31.040Z,10.60
2024-04-18T13:29:59.015Z,10.70
2024-04-18T13:32:32.244Z,10.70
2024-04-18T13:34:59.458Z,10.80
2024-04-18T13:37:26.570Z,10.80
2024-04-18T13:40:12.282Z,10.80
2024-04-18T13:42:55.541Z,10.70
2024-04-18T13:45:30.935Z,10.60
2024-04-18T13:47:58.577Z,10.50
2024-04-18T13:50:42.388Z,10.30
2024-04-18T13:53:09.452Z,10.00
2024-04-18T13:55:45.004Z,9.90
2024-04-18T13:58:12.510Z,9.90
2024-04-18T14:01:00.094Z,9.90
2024-04-18T14:03:27.507Z,10.00
2024-04-18T14:06:05.169Z,10.00
2024-04-18T14:08:40.172Z,9.80
2024-04-18T14:11:29.793Z,9.60
2024-04-18T14:14:10.468Z,9.60
2024-04-18T14:17:16.164Z,9.70
2024-04-18T14:20:02.191Z,9.70
2024-04-18T14:22:29.307Z,9.40
2024-04-18T14:24:56.415Z,9.40
2024-04-18T14:27:35.539Z,9.20
2024-04-18T14:30:03.185Z,9.20
2024-04-18T14:32:33.409Z,9.10
2024-04-18T14:35:03.434Z,9.10
2024-04-18T14:37:30.878Z,9.20
2024-04-18T14:39:58.027Z,9.30
2024-04-18T14:42:25.255Z,9.30
2024-04-18T14:44:53.702Z,9.30
2024-04-18T14:47:20.907Z,9.30
2024-04-18T14:50:02.135Z,9.40
2024-04-18T14:52:38.067Z,9.40
2024-04-18T14:55:28.694Z,9.40
2024-04-18T14:58:02.311Z,9.50
2024-04-18T15:00:52.999Z,9.50
2024-04-18T15:03:21.249Z,9.60
2024-04-18T15:05:57.827Z,9.60
2024-04-18T15:08:51.155Z,9.50
2024-04-18T15:11:25.214Z,9.30
2024-04-18T15:14:06.294Z,9.30
2024-04-18T15:16:34.055Z,9.30
2024-04-18T15:19:01.336Z,9.30
2024-04-18T15:21:48.591Z,9.30
2024-04-18T15:24:15.811Z,9.30
2024-04-18T15:27:03.728Z,9.20
2024-04-18T15:29:31.194Z,9.10
2024-04-18T15:32:17.035Z,9.10
2024-04-18T15:34:47.805Z,9.10
2024-04-18T15:37:34.943Z,9.10
2024-04-18T15:40:02.760Z,9.10
2024-04-18T15:42:29.834Z,9.10
2024-04-18T15:44:57.245Z,9.10
2024-04-18T15:47:31.175Z,9.10
2024-04-18T15:50:17.598Z,9.10
2024-04-18T15:52:47.723Z,9.10
2024-04-18T15:55:33.844Z,9.10
2024-04-18T15:58:19.820Z,9.10
2024-04-18T16:00:47.091Z,9.00
2024-04-18T16:03:32.872Z,9.00
2024-04-18T16:06:19.284Z,9.00
2024-04-18T16:09:06.373Z,8.90
2024-04-18T16:11:40.698Z,8.90
2024-04-18T16:14:28.650Z,8.70
2024-04-18T16:16:56.072Z,8.80
2024-04-18T16:19:38.034Z,8.70
2024-04-18T16:22:05.927Z,8.60
2024-04-18T16:24:49.013Z,8.50
2024-04-18T16:27:16.970Z,8.50
2024-04-18T16:29:58.407Z,8.30
2024-04-18T16:32:40.664Z,8.20
2024-04-18T16:35:08.408Z,8.10
2024-04-18T16:37:39.462Z,8.10
2024-04-18T16:40:16.019Z,8.00
2024-04-18T16:42:58.846Z,8.00
2024-04-18T16:45:26.144Z,7.90
2024-04-18T16:47:53.462Z,7.90
2024-04-18T16:50:20.575Z,7.80
2024-04-18T16:52:51.261Z,7.70
2024-04-18T16:55:36.894Z,7.50
2024-04-18T16:58:17.056Z,7.40
2024-04-18T17:00:58.418Z,7.30
2024-04-18T17:03:26.868Z,7.30
2024-04-18T17:06:04.869Z,7.30
2024-04-18T17:08:33.316Z,7.30
2024-04-18T17:11:00.953Z,7.10
2024-04-18T17:13:49.659Z,7.00
2024-04-18T17:16:16.943Z,7.00
2024-04-18T17:18:47.231Z,6.80
2024-04-18T17:21:14.884Z,6.80
2024-04-18T17:23:42.905Z,6.80
2024-04-18T17:26:10.182Z,6.80
2024-04-18T17:28:37.428Z,6.70
2024-04-18T17:31:05.551Z,6.70
2024-04-18T17:33:32.585Z,6.60
2024-04-18T17:36:02.671Z,6.60
2024-04-18T17:38:49.182Z,6.60
2024-04-18T17:41:32.549Z,6.60
2024-04-18T17:44:18.086Z,6.60
2024-04-18T17:46:58.844Z,6.60
2024-04-18T17:49:26.966Z,6.50
2024-04-18T17:51:55.317Z,6.40
2024-04-18T17:54:25.331Z,6.40
2024-04-18T17:56:52.531Z,6.40
2024-04-18T17:59:20.618Z,6.40
2024-04-18T18:01:47.892Z,6.30
2024-04-18T18:04:15.758Z,6.20
2024-04-18T18:06:43.001Z,6.20
2024-04-18T18:09:10.697Z,6.20
2024-04-18T18:11:37.992Z,6.10
2024-04-18T18:14:05.089Z,6.20
2024-04-18T18:16:50.707Z,6.20
2024-04-18T18:19:18.064Z,6.10
2024-04-18T18:21:57.393Z,6.20
2024-04-18T18:24:24.853Z,6.10
2024-04-18T18:26:52.036Z,5.90
2024-04-18T18:29:19.131Z,5.80
2024-04-18T18:32:05.784Z,5.80
2024-04-18T18:34:36.159Z,5.70
2024-04-18T18:37:03.474Z,5.70
2024-04-18T18:39:30.647Z,5.60
2024-04-18T18:41:57.826Z,5.50
2024-04-18T18:44:24.978Z,5.50
2024-04-18T18:46:52.181Z,5.40
2024-04-18T18:49:20.062Z,5.40
2024-04-18T18:51:47.416Z,5.30
2024-04-18T18:54:14.577Z,5.30
2024-04-18T18:56:41.844Z,5.30
2024-04-18T18:59:44.783Z,5.30
2024-04-18T19:02:12.266Z,5.20
2024-04-18T19:04:58.068Z,5.30
2024-04-18T19:07:25.204Z,5.20
2024-04-18T19:09:52.307Z,5.20
2024-04-18T19:12:19.507Z,5.10
2024-04-18T19:14:46.609Z,5.00
2024-04-18T19:17:13.718Z,5.00
2024-04-18T19:19:40.909Z,5.00
2024-04-18T19:22:08.210Z,5.00
2024-04-18T19:24:35.255Z,5.00
2024-04-18T19:27:02.737Z,5.00
2024-04-18T19:29:39.672Z,5.00
2024-04-18T19:32:20.841Z,5.00
2024-04-18T19:34:48.229Z,4.90
2024-04-18T19:37:15.611Z,4.80
2024-04-18T19:39:42.758Z,4.80
2024-04-18T19:42:09.984Z,4.80
2024-04-18T19:44:37.169Z,4.80
2024-04-18T19:47:06.710Z,4.80
2024-04-18T19:49:37.654Z,4.80
2024-04-18T19:52:08.113Z,4.70
2024-04-18T19:54:36.020Z,4.70
2024-04-18T19:57:04.038Z,4.60
2024-04-18T19:59:31.135Z,4.60
2024-04-18T20:01:58.227Z,4.60
2024-04-18T20:04:26.208Z,4.60
2024-04-18T20:06:54.224Z,4.60
2024-04-18T20:09:21.297Z,4.50
2024-04-18T20:11:48.424Z,4.50
2024-04-18T20:14:19.879Z,4.40
2024-04-18T20:16:47.096Z,4.40
2024-04-18T20:19:15.514Z,4.30
2024-04-18T20:21:44.459Z,4.20
2024-04-18T20:24:13.304Z,4.20
2024-04-18T20:27:00.710Z,4.10
2024-04-18T20:29:46.330Z,4.10
2024-04-18T20:32:23.447Z,4.00
2024-04-18T20:34:50.597Z,4.00
2024-04-18T20:37:18.557Z,4.00
2024-04-18T20:39:46.532Z,4.00
2024-04-18T20:42:14.058Z,4.00
2024-04-18T20:44:59.433Z,3.90
2024-04-18T20:47:27.118Z,3.90
2024-04-18T20:49:54.222Z,3.90
2024-04-18T20:52:21.403Z,3.80
2024-04-18T20:54:49.054Z,3.80
2024-04-18T20:57:16.394Z,3.70
2024-04-18T20:59:43.865Z,3.80
2024-04-18T21:02:11.078Z,3.80
2024-04-18T21:04:38.134Z,3.70
2024-04-18T21:07:05.326Z,3.70
2024-04-18T21:09:32.526Z,3.70
2024-04-18T21:11:59.480Z,3.60
2024-04-18T21:14:26.824Z,3.60
2024-04-18T21:16:53.998Z,3.60
2024-04-18T21:19:22.176Z,3.60
2024-04-18T21:21:49.652Z,3.60
2024-04-18T21:24:17.148Z,3.60
2024-04-18T21:26:50.155Z,3.50
2024-04-18T21:29:17.462Z,3.50
2024-04-18T21:31:44.620Z,3.50
2024-04-18T21:34:12.618Z,3.40
2024-04-18T21:36:40.095Z,3.40
2024-04-18T21:39:07.306Z,3.40
2024-04-18T21:41:39.252Z,3.30
2024-04-18T21:44:06.495Z,3.30
2024-04-18T21:46:33.748Z,3.30
2024-04-18T21:49:00.991Z,3.10
2024-04-18T21:51:28.806Z,3.10
2024-04-18T21:53:56.016Z,3.00
2024-04-18T21:56:23.123Z,2.90
2024-04-18T21:58:55.772Z,2.90
2024-04-18T22:01:38.309Z,3.00
2024-04-18T22:04:05.604Z,3.00
2024-04-18T22:06:33.462Z,3.00
2024-04-18T22:09:00.768Z,3.00
2024-04-18T22:11:27.870Z,2.90
2024-04-18T22:13:54.934Z,2.80
2024-04-18T22:16:21.950Z,2.70
2024-04-18T22:18:49.268Z,2.70
2024-04-18T22:21:35.127Z,2.80
2024-04-18T22:24:02.873Z,2.60
2024-04-18T22:26:31.038Z,2.50
2024-04-18T22:28:58.255Z,2.50
2024-04-18T22:31:25.362Z,2.50
2024-04-18T22:33:52.633Z,2.50
2024-04-18T22:36:20.354Z,2.50
2024-04-18T22:38:47.356Z,2.60
2024-04-18T22:41:14.453Z,2.60
2024-04-18T22:43:41.532Z,2.50
2024-04-18T22:46:08.533Z,2.50
2024-04-18T22:48:35.731Z,2.40
2024-04-18T22:51:05.383Z,2.30
2024-04-18T22:53:32.490Z,2.30
2024-04-18T22:56:00.349Z,2.30
2024-04-18T22:58:28.289Z,2.30
2024-04-18T23:01:04.938Z,2.30
2024-04-18T23:03:32.287Z,2.20
2024-04-18T23:06:15.853Z,2.20
2024-04-18T23:08:43.765Z,2.20
2024-04-18T23:11:11.129Z,2.10
2024-04-18T23:13:38.421Z,2.10
2024-04-18T23:16:06.136Z,2.10
2024-04-18T23:18:33.564Z,2.10
2024-04-18T23:21:00.712Z,2.20
2024-04-18T23:23:33.704Z,2.20
2024-04-18T23:26:00.919Z,2.10
2024-04-18T23:28:27.964Z,2.10
2024-04-18T23:30:54.994Z,2.10
2024-04-18T23:33:22.380Z,2.10
2024-04-18T23:35:49.465Z,2.10
2024-04-18T23:38:16.639Z,2.10
2024-04-18T23:40:43.771Z,2.00
2024-04-18T23:43:10.839Z,2.10
2024-04-18T23:45:37.995Z,2.20
2024-04-18T23:48:07.877Z,2.30
2024-04-18T23:50:34.979Z,2.30
2024-04-18T23:53:02.043Z,2.20
2024-04-18T23:55:29.217Z,2.10
2024-04-18T23:57:56.332Z,2.10
